sensor_id;sensor_type;location;lat;lon;timestamp;P1;durP1;ratioP1;P2;durP2;ratioP2
47025;SDS011;32783;51.756;-2.556;2022-10-30T00:01:07;3.55;;;1.95;;
47025;SDS011;32783;51.756;-2.556;2022-10-30T00:03:33;3.25;;;1.60;;
47025;SDS011;32783;51.756;-2.556;2022-10-30T00:05:58;1.98;;;1.38;;
47025;SDS011;32783;51.756;-2.556;2022-10-30T00:08:23;2.75;;;1.63;;
47025;SDS011;32783;51.756;-2.556;2022-10-30T00:10:49;3.97;;;1.77;;
47025;SDS011;32783;51.756;-2.556;2022-10-30T00:13:16;2.80;;;1.58;;
47025;SDS011;32783;51.756;-2.556;2022-10-30T00:15:45;2.75;;;1.70;;
47025;SDS011;32783;51.756;-2.556;2022-10-30T00:18:20;3.22;;;1.40;;
47025;SDS011;32783;51.756;-2.556;2022-10-30T00:20:45;2.95;;;1.10;;
47025;SDS011;32783;51.756;-2.556;2022-10-30T00:23:11;2.80;;;1.65;;
47025;SDS011;32783;51.756;-2.556;2022-10-30T00:25:36;4.13;;;1.67;;
47025;SDS011;32783;51.756;-2.556;2022-10-30T00:28:03;1.92;;;1.00;;
47025;SDS011;32783;51.756;-2.556;2022-10-30T00:30:29;2.85;;;2.25;;
47025;SDS011;32783;51.756;-2.556;2022-10-30T00:32:55;3.03;;;1.42;;
47025;SDS011;32783;51.756;-2.556;2022-10-30T00:35:21;3.67;;;1.80;;
47025;SDS011;32783;51.756;-2.556;2022-10-30T00:37:46;3.55;;;1.55;;
47025;SDS011;32783;51.756;-2.556;2022-10-30T00:40:13;2.95;;;1.85;;
47025;SDS011;32783;51.756;-2.556;2022-10-30T00:42:40;2.38;;;1.48;;
47025;SDS011;32783;51.756;-2.556;2022-10-30T00:45:05;2.97;;;1.52;;
47025;SDS011;32783;51.756;-2.556;2022-10-30T00:47:33;2.30;;;1.30;;
47025;SDS011;32783;51.756;-2.556;2022-10-30T00:52:35;3.15;;;1.60;;
47025;SDS011;32783;51.756;-2.556;2022-10-30T00:55:05;2.55;;;1.50;;
47025;SDS011;32783;51.756;-2.556;2022-10-30T00:57:33;2.80;;;1.33;;
47025;SDS011;32783;51.756;-2.556;2022-10-30T00:59:59;2.78;;;1.42;;
47025;SDS011;32783;51.756;-2.556;2022-10-30T01:02:25;1.98;;;1.10;;
47025;SDS011;32783;51.756;-2.556;2022-10-30T01:04:51;2.75;;;1.52;;
47025;SDS011;32783;51.756;-2.556;2022-10-30T01:07:17;2.40;;;1.20;;
47025;SDS011;32783;51.756;-2.556;2022-10-30T01:09:42;2.33;;;1.33;;
47025;SDS011;32783;51.756;-2.556;2022-10-30T01:12:09;1.90;;;1.13;;
47025;SDS011;32783;51.756;-2.556;2022-10-30T01:14:35;2.13;;;1.20;;
47025;SDS011;32783;51.756;-2.556;2022-10-30T01:28:19;2.88;;;1.48;;
47025;SDS011;32783;51.756;-2.556;2022-10-30T01:34:06;3.65;;;1.38;;
47025;SDS011;32783;51.756;-2.556;2022-10-30T01:39:11;2.53;;;1.08;;
47025;SDS011;32783;51.756;-2.556;2022-10-30T01:41:38;2.13;;;0.98;;
47025;SDS011;32783;51.756;-2.556;2022-10-30T01:44:08;2.67;;;1.27;;
47025;SDS011;32783;51.756;-2.556;2022-10-30T01:47:45;3.53;;;1.48;;
47025;SDS011;32783;51.756;-2.556;2022-10-30T01:50:02;2.97;;;1.40;;
47025;SDS011;32783;51.756;-2.556;2022-10-30T02:00:50;2.22;;;1.05;;
47025;SDS011;32783;51.756;-2.556;2022-10-30T02:03:19;2.28;;;1.10;;
47025;SDS011;32783;51.756;-2.556;2022-10-30T02:05:46;2.33;;;0.95;;
47025;SDS011;32783;51.756;-2.556;2022-10-30T02:08:13;2.88;;;1.05;;
47025;SDS011;32783;51.756;-2.556;2022-10-30T02:10:39;1.73;;;0.98;;
47025;SDS011;32783;51.756;-2.556;2022-10-30T02:13:05;1.80;;;1.23;;
47025;SDS011;32783;51.756;-2.556;2022-10-30T02:15:31;2.25;;;0.98;;
47025;SDS011;32783;51.756;-2.556;2022-10-30T02:17:56;2.88;;;1.30;;
47025;SDS011;32783;51.756;-2.556;2022-10-30T02:20:22;2.25;;;1.00;;
47025;SDS011;32783;51.756;-2.556;2022-10-30T02:22:48;1.75;;;0.80;;
47025;SDS011;32783;51.756;-2.556;2022-10-30T02:25:14;2.03;;;0.90;;
47025;SDS011;32783;51.756;-2.556;2022-10-30T02:27:40;1.88;;;1.10;;
47025;SDS011;32783;51.756;-2.556;2022-10-30T02:30:05;2.15;;;0.80;;
47025;SDS011;32783;51.756;-2.556;2022-10-30T02:32:31;2.28;;;1.55;;
47025;SDS011;32783;51.756;-2.556;2022-10-30T02:34:57;1.40;;;0.93;;
47025;SDS011;32783;51.756;-2.556;2022-10-30T02:37:22;2.88;;;1.10;;
47025;SDS011;32783;51.756;-2.556;2022-10-30T02:39:48;1.90;;;1.10;;
47025;SDS011;32783;51.756;-2.556;2022-10-30T02:42:14;1.98;;;1.00;;
47025;SDS011;32783;51.756;-2.556;2022-10-30T02:44:39;1.48;;;0.80;;
47025;SDS011;32783;51.756;-2.556;2022-10-30T02:47:05;2.00;;;1.15;;
47025;SDS011;32783;51.756;-2.556;2022-10-30T02:49:30;2.65;;;1.00;;
47025;SDS011;32783;51.756;-2.556;2022-10-30T02:51:56;2.05;;;1.00;;
47025;SDS011;32783;51.756;-2.556;2022-10-30T02:54:21;2.20;;;0.95;;
47025;SDS011;32783;51.756;-2.556;2022-10-30T02:56:46;1.85;;;0.80;;
47025;SDS011;32783;51.756;-2.556;2022-10-30T02:59:12;1.42;;;0.80;;
47025;SDS011;32783;51.756;-2.556;2022-10-30T03:01:37;2.35;;;0.90;;
47025;SDS011;32783;51.756;-2.556;2022-10-30T03:04:03;1.75;;;0.95;;
47025;SDS011;32783;51.756;-2.556;2022-10-30T03:06:28;1.98;;;0.95;;
47025;SDS011;32783;51.756;-2.556;2022-10-30T03:08:54;1.45;;;0.75;;
47025;SDS011;32783;51.756;-2.556;2022-10-30T03:11:19;1.50;;;0.93;;
47025;SDS011;32783;51.756;-2.556;2022-10-30T03:13:45;2.03;;;1.20;;
47025;SDS011;32783;51.756;-2.556;2022-10-30T03:16:13;1.30;;;0.60;;
47025;SDS011;32783;51.756;-2.556;2022-10-30T03:18:43;1.88;;;1.10;;
47025;SDS011;32783;51.756;-2.556;2022-10-30T03:21:09;1.80;;;0.90;;
47025;SDS011;32783;51.756;-2.556;2022-10-30T03:23:36;2.08;;;1.08;;
47025;SDS011;32783;51.756;-2.556;2022-10-30T03:26:02;3.03;;;1.05;;
47025;SDS011;32783;51.756;-2.556;2022-10-30T03:28:28;1.77;;;0.75;;
47025;SDS011;32783;51.756;-2.556;2022-10-30T03:31:02;2.35;;;1.33;;
47025;SDS011;32783;51.756;-2.556;2022-10-30T03:33:30;2.08;;;0.93;;
47025;SDS011;32783;51.756;-2.556;2022-10-30T03:35:56;1.73;;;0.80;;
47025;SDS011;32783;51.756;-2.556;2022-10-30T03:38:21;2.60;;;1.00;;
47025;SDS011;32783;51.756;-2.556;2022-10-30T03:40:47;2.10;;;1.13;;
47025;SDS011;32783;51.756;-2.556;2022-10-30T03:43:13;1.95;;;0.93;;
47025;SDS011;32783;51.756;-2.556;2022-10-30T03:45:38;1.67;;;0.80;;
47025;SDS011;32783;51.756;-2.556;2022-10-30T03:48:05;2.13;;;1.00;;
47025;SDS011;32783;51.756;-2.556;2022-10-30T03:50:30;1.48;;;0.70;;
47025;SDS011;32783;51.756;-2.556;2022-10-30T03:52:57;2.25;;;1.10;;
47025;SDS011;32783;51.756;-2.556;2022-10-30T03:55:22;1.83;;;0.73;;
47025;SDS011;32783;51.756;-2.556;2022-10-30T03:57:48;1.80;;;0.77;;
47025;SDS011;32783;51.756;-2.556;2022-10-30T04:00:14;2.83;;;1.10;;
47025;SDS011;32783;51.756;-2.556;2022-10-30T04:02:44;2.28;;;1.10;;
47025;SDS011;32783;51.756;-2.556;2022-10-30T04:05:10;2.40;;;0.82;;
47025;SDS011;32783;51.756;-2.556;2022-10-30T04:07:35;1.63;;;0.98;;
47025;SDS011;32783;51.756;-2.556;2022-10-30T04:10:01;1.00;;;0.60;;
47025;SDS011;32783;51.756;-2.556;2022-10-30T04:12:26;1.95;;;1.10;;
47025;SDS011;32783;51.756;-2.556;2022-10-30T04:14:52;1.45;;;0.65;;
47025;SDS011;32783;51.756;-2.556;2022-10-30T04:17:17;1.65;;;1.00;;
47025;SDS011;32783;51.756;-2.556;2022-10-30T04:19:43;1.10;;;0.70;;
47025;SDS011;32783;51.756;-2.556;2022-10-30T04:22:08;1.88;;;0.60;;
47025;SDS011;32783;51.756;-2.556;2022-10-30T04:24:33;1.40;;;0.70;;
47025;SDS011;32783;51.756;-2.556;2022-10-30T04:26:59;2.40;;;0.85;;
47025;SDS011;32783;51.756;-2.556;2022-10-30T04:29:24;0.88;;;0.55;;
47025;SDS011;32783;51.756;-2.556;2022-10-30T04:31:50;2.92;;;1.02;;
47025;SDS011;32783;51.756;-2.556;2022-10-30T04:34:15;1.17;;;0.80;;
47025;SDS011;32783;51.756;-2.556;2022-10-30T04:36:40;2.10;;;1.00;;
47025;SDS011;32783;51.756;-2.556;2022-10-30T04:39:06;1.00;;;0.80;;
47025;SDS011;32783;51.756;-2.556;2022-10-30T04:41:31;1.92;;;1.08;;
47025;SDS011;32783;51.756;-2.556;2022-10-30T04:43:56;2.00;;;0.95;;
47025;SDS011;32783;51.756;-2.556;2022-10-30T04:46:22;2.38;;;1.00;;
47025;SDS011;32783;51.756;-2.556;2022-10-30T04:48:47;1.52;;;0.70;;
47025;SDS011;32783;51.756;-2.556;2022-10-30T04:51:13;1.88;;;0.90;;
47025;SDS011;32783;51.756;-2.556;2022-10-30T04:53:38;3.15;;;1.02;;
47025;SDS011;32783;51.756;-2.556;2022-10-30T04:56:04;1.38;;;0.50;;
47025;SDS011;32783;51.756;-2.556;2022-10-30T04:58:30;2.40;;;1.10;;
47025;SDS011;32783;51.756;-2.556;2022-10-30T05:00:59;2.33;;;1.10;;
47025;SDS011;32783;51.756;-2.556;2022-10-30T05:03:25;2.00;;;0.82;;
47025;SDS011;32783;51.756;-2.556;2022-10-30T05:05:58;1.30;;;0.63;;
47025;SDS011;32783;51.756;-2.556;2022-10-30T05:08:23;1.23;;;0.77;;
47025;SDS011;32783;51.756;-2.556;2022-10-30T05:10:49;1.55;;;0.75;;
47025;SDS011;32783;51.756;-2.556;2022-10-30T05:13:14;1.42;;;0.70;;
47025;SDS011;32783;51.756;-2.556;2022-10-30T05:15:40;1.60;;;0.88;;
47025;SDS011;32783;51.756;-2.556;2022-10-30T05:18:05;2.90;;;1.10;;
47025;SDS011;32783;51.756;-2.556;2022-10-30T05:20:31;1.50;;;0.40;;
47025;SDS011;32783;51.756;-2.556;2022-10-30T05:22:57;2.35;;;0.70;;
47025;SDS011;32783;51.756;-2.556;2022-10-30T05:25:23;2.60;;;0.90;;
47025;SDS011;32783;51.756;-2.556;2022-10-30T05:27:48;2.45;;;0.90;;
47025;SDS011;32783;51.756;-2.556;2022-10-30T05:30:14;2.03;;;0.80;;
47025;SDS011;32783;51.756;-2.556;2022-10-30T05:32:39;2.10;;;1.15;;
47025;SDS011;32783;51.756;-2.556;2022-10-30T05:35:05;1.83;;;0.70;;
47025;SDS011;32783;51.756;-2.556;2022-10-30T05:37:30;1.60;;;0.70;;
47025;SDS011;32783;51.756;-2.556;2022-10-30T05:39:56;2.05;;;0.80;;
47025;SDS011;32783;51.756;-2.556;2022-10-30T05:42:21;1.40;;;0.70;;
47025;SDS011;32783;51.756;-2.556;2022-10-30T05:44:46;2.22;;;1.10;;
47025;SDS011;32783;51.756;-2.556;2022-10-30T05:47:12;1.88;;;0.75;;
47025;SDS011;32783;51.756;-2.556;2022-10-30T05:49:37;1.08;;;0.70;;
47025;SDS011;32783;51.756;-2.556;2022-10-30T05:52:03;2.10;;;0.75;;
47025;SDS011;32783;51.756;-2.556;2022-10-30T05:54:28;1.52;;;0.60;;
47025;SDS011;32783;51.756;-2.556;2022-10-30T05:56:55;2.50;;;0.77;;
47025;SDS011;32783;51.756;-2.556;2022-10-30T05:59:21;1.90;;;0.80;;
47025;SDS011;32783;51.756;-2.556;2022-10-30T06:01:46;2.92;;;0.90;;
47025;SDS011;32783;51.756;-2.556;2022-10-30T06:04:12;1.38;;;0.65;;
47025;SDS011;32783;51.756;-2.556;2022-10-30T06:06:37;2.58;;;0.85;;
47025;SDS011;32783;51.756;-2.556;2022-10-30T06:09:02;1.55;;;0.70;;
47025;SDS011;32783;51.756;-2.556;2022-10-30T06:11:28;1.10;;;0.75;;
47025;SDS011;32783;51.756;-2.556;2022-10-30T06:13:53;1.88;;;0.80;;
47025;SDS011;32783;51.756;-2.556;2022-10-30T06:16:18;1.90;;;1.05;;
47025;SDS011;32783;51.756;-2.556;2022-10-30T06:18:44;2.63;;;0.80;;
47025;SDS011;32783;51.756;-2.556;2022-10-30T06:21:09;1.60;;;0.65;;
47025;SDS011;32783;51.756;-2.556;2022-10-30T06:23:35;0.65;;;0.50;;
47025;SDS011;32783;51.756;-2.556;2022-10-30T06:26:00;1.50;;;0.80;;
47025;SDS011;32783;51.756;-2.556;2022-10-30T06:28:25;1.17;;;0.65;;
47025;SDS011;32783;51.756;-2.556;2022-10-30T06:30:52;1.67;;;0.80;;
47025;SDS011;32783;51.756;-2.556;2022-10-30T06:33:18;2.47;;;0.90;;
47025;SDS011;32783;51.756;-2.556;2022-10-30T06:35:44;2.08;;;1.00;;
47025;SDS011;32783;51.756;-2.556;2022-10-30T06:38:12;1.33;;;0.60;;
47025;SDS011;32783;51.756;-2.556;2022-10-30T06:40:38;2.17;;;1.15;;
47025;SDS011;32783;51.756;-2.556;2022-10-30T06:43:04;1.77;;;0.80;;
47025;SDS011;32783;51.756;-2.556;2022-10-30T06:45:29;2.60;;;0.63;;
47025;SDS011;32783;51.756;-2.556;2022-10-30T06:47:55;1.10;;;0.60;;
47025;SDS011;32783;51.756;-2.556;2022-10-30T06:50:20;3.28;;;1.10;;
47025;SDS011;32783;51.756;-2.556;2022-10-30T06:52:46;1.38;;;0.80;;
47025;SDS011;32783;51.756;-2.556;2022-10-30T06:55:12;1.33;;;0.90;;
47025;SDS011;32783;51.756;-2.556;2022-10-30T06:57:38;2.03;;;1.13;;
47025;SDS011;32783;51.756;-2.556;2022-10-30T07:00:04;2.28;;;1.20;;
47025;SDS011;32783;51.756;-2.556;2022-10-30T07:02:30;2.08;;;1.13;;
47025;SDS011;32783;51.756;-2.556;2022-10-30T07:04:56;2.67;;;0.80;;
47025;SDS011;32783;51.756;-2.556;2022-10-30T07:07:21;2.20;;;1.10;;
47025;SDS011;32783;51.756;-2.556;2022-10-30T07:09:46;1.45;;;0.80;;
47025;SDS011;32783;51.756;-2.556;2022-10-30T07:12:12;1.95;;;0.77;;
47025;SDS011;32783;51.756;-2.556;2022-10-30T07:14:37;3.42;;;1.00;;
47025;SDS011;32783;51.756;-2.556;2022-10-30T07:17:03;3.45;;;1.50;;
47025;SDS011;32783;51.756;-2.556;2022-10-30T07:19:28;2.65;;;0.80;;
47025;SDS011;32783;51.756;-2.556;2022-10-30T07:21:54;1.58;;;0.70;;
47025;SDS011;32783;51.756;-2.556;2022-10-30T07:24:19;1.83;;;0.57;;
47025;SDS011;32783;51.756;-2.556;2022-10-30T07:26:45;2.30;;;1.10;;
47025;SDS011;32783;51.756;-2.556;2022-10-30T07:29:10;2.00;;;0.93;;
47025;SDS011;32783;51.756;-2.556;2022-10-30T07:31:35;1.92;;;1.23;;
47025;SDS011;32783;51.756;-2.556;2022-10-30T07:34:01;2.03;;;0.93;;
47025;SDS011;32783;51.756;-2.556;2022-10-30T07:36:26;2.92;;;1.10;;
47025;SDS011;32783;51.756;-2.556;2022-10-30T07:38:51;2.13;;;0.90;;
47025;SDS011;32783;51.756;-2.556;2022-10-30T07:41:17;2.97;;;0.88;;
47025;SDS011;32783;51.756;-2.556;2022-10-30T07:43:43;2.78;;;0.88;;
47025;SDS011;32783;51.756;-2.556;2022-10-30T07:46:09;2.38;;;1.13;;
47025;SDS011;32783;51.756;-2.556;2022-10-30T07:48:35;2.78;;;1.70;;
47025;SDS011;32783;51.756;-2.556;2022-10-30T07:51:00;1.55;;;1.27;;
47025;SDS011;32783;51.756;-2.556;2022-10-30T07:53:26;1.95;;;1.08;;
47025;SDS011;32783;51.756;-2.556;2022-10-30T07:55:51;2.45;;;1.27;;
47025;SDS011;32783;51.756;-2.556;2022-10-30T07:58:17;3.97;;;1.55;;
47025;SDS011;32783;51.756;-2.556;2022-10-30T08:00:42;2.45;;;1.17;;
47025;SDS011;32783;51.756;-2.556;2022-10-30T08:03:08;2.10;;;0.90;;
47025;SDS011;32783;51.756;-2.556;2022-10-30T08:05:35;2.88;;;1.17;;
47025;SDS011;32783;51.756;-2.556;2022-10-30T08:08:00;3.05;;;1.33;;
47025;SDS011;32783;51.756;-2.556;2022-10-30T08:10:26;2.30;;;0.85;;
47025;SDS011;32783;51.756;-2.556;2022-10-30T08:12:51;2.42;;;1.00;;
47025;SDS011;32783;51.756;-2.556;2022-10-30T08:15:17;2.25;;;1.15;;
47025;SDS011;32783;51.756;-2.556;2022-10-30T08:17:43;2.38;;;1.10;;
47025;SDS011;32783;51.756;-2.556;2022-10-30T08:20:13;2.55;;;0.80;;
47025;SDS011;32783;51.756;-2.556;2022-10-30T08:22:49;2.42;;;1.20;;
47025;SDS011;32783;51.756;-2.556;2022-10-30T08:25:16;6.30;;;1.10;;
47025;SDS011;32783;51.756;-2.556;2022-10-30T08:27:55;2.35;;;1.02;;
47025;SDS011;32783;51.756;-2.556;2022-10-30T08:30:22;3.42;;;0.70;;
47025;SDS011;32783;51.756;-2.556;2022-10-30T08:32:48;1.90;;;0.60;;
47025;SDS011;32783;51.756;-2.556;2022-10-30T08:35:14;3.38;;;1.60;;
47025;SDS011;32783;51.756;-2.556;2022-10-30T08:37:40;1.58;;;0.88;;
47025;SDS011;32783;51.756;-2.556;2022-10-30T08:40:06;2.80;;;1.20;;
47025;SDS011;32783;51.756;-2.556;2022-10-30T08:42:32;2.13;;;0.95;;
47025;SDS011;32783;51.756;-2.556;2022-10-30T08:44:57;2.35;;;1.10;;
47025;SDS011;32783;51.756;-2.556;2022-10-30T08:47:23;3.30;;;1.00;;
47025;SDS011;32783;51.756;-2.556;2022-10-30T08:49:48;2.08;;;1.08;;
47025;SDS011;32783;51.756;-2.556;2022-10-30T08:52:14;2.05;;;1.02;;
47025;SDS011;32783;51.756;-2.556;2022-10-30T08:54:39;2.15;;;1.02;;
47025;SDS011;32783;51.756;-2.556;2022-10-30T08:57:04;2.15;;;1.02;;
47025;SDS011;32783;51.756;-2.556;2022-10-30T08:59:30;2.10;;;0.85;;
47025;SDS011;32783;51.756;-2.556;2022-10-30T09:01:55;2.50;;;1.10;;
47025;SDS011;32783;51.756;-2.556;2022-10-30T09:04:20;3.10;;;1.25;;
47025;SDS011;32783;51.756;-2.556;2022-10-30T09:06:46;2.33;;;0.88;;
47025;SDS011;32783;51.756;-2.556;2022-10-30T09:09:11;1.23;;;0.90;;
47025;SDS011;32783;51.756;-2.556;2022-10-30T09:11:38;2.25;;;0.90;;
47025;SDS011;32783;51.756;-2.556;2022-10-30T09:14:04;1.58;;;0.88;;
47025;SDS011;32783;51.756;-2.556;2022-10-30T09:16:29;2.10;;;1.05;;
47025;SDS011;32783;51.756;-2.556;2022-10-30T09:18:54;3.00;;;1.40;;
47025;SDS011;32783;51.756;-2.556;2022-10-30T09:21:20;3.22;;;1.08;;
47025;SDS011;32783;51.756;-2.556;2022-10-30T09:23:45;2.05;;;1.10;;
47025;SDS011;32783;51.756;-2.556;2022-10-30T09:26:10;1.48;;;0.88;;
47025;SDS011;32783;51.756;-2.556;2022-10-30T09:28:36;1.90;;;0.98;;
47025;SDS011;32783;51.756;-2.556;2022-10-30T09:31:02;2.38;;;1.10;;
47025;SDS011;32783;51.756;-2.556;2022-10-30T09:33:27;2.10;;;1.00;;
47025;SDS011;32783;51.756;-2.556;2022-10-30T09:35:53;1.65;;;0.95;;
47025;SDS011;32783;51.756;-2.556;2022-10-30T09:38:18;1.63;;;0.88;;
47025;SDS011;32783;51.756;-2.556;2022-10-30T09:40:55;2.80;;;1.08;;
47025;SDS011;32783;51.756;-2.556;2022-10-30T09:46:21;3.92;;;1.90;;
47025;SDS011;32783;51.756;-2.556;2022-10-30T09:57:52;2.65;;;1.27;;
47025;SDS011;32783;51.756;-2.556;2022-10-30T10:00:29;2.50;;;1.25;;
47025;SDS011;32783;51.756;-2.556;2022-10-30T10:05:50;4.00;;;1.98;;
47025;SDS011;32783;51.756;-2.556;2022-10-30T10:08:18;3.20;;;1.65;;
47025;SDS011;32783;51.756;-2.556;2022-10-30T10:11:12;5.75;;;1.85;;
47025;SDS011;32783;51.756;-2.556;2022-10-30T10:13:45;3.85;;;1.48;;
47025;SDS011;32783;51.756;-2.556;2022-10-30T10:16:18;2.40;;;1.17;;
47025;SDS011;32783;51.756;-2.556;2022-10-30T10:21:26;3.20;;;1.30;;
47025;SDS011;32783;51.756;-2.556;2022-10-30T10:23:56;2.22;;;1.17;;
47025;SDS011;32783;51.756;-2.556;2022-10-30T10:26:57;4.18;;;1.70;;
47025;SDS011;32783;51.756;-2.556;2022-10-30T10:29:36;2.35;;;1.17;;
47025;SDS011;32783;51.756;-2.556;2022-10-30T10:39:53;2.72;;;1.52;;
47025;SDS011;32783;51.756;-2.556;2022-10-30T10:45:19;5.15;;;1.60;;
47025;SDS011;32783;51.756;-2.556;2022-10-30T10:50:45;4.05;;;1.15;;
47025;SDS011;32783;51.756;-2.556;2022-10-30T10:55:57;2.50;;;1.10;;
47025;SDS011;32783;51.756;-2.556;2022-10-30T10:58:35;2.85;;;1.27;;
47025;SDS011;32783;51.756;-2.556;2022-10-30T11:01:13;2.72;;;1.20;;
47025;SDS011;32783;51.756;-2.556;2022-10-30T11:06:20;3.78;;;1.20;;
47025;SDS011;32783;51.756;-2.556;2022-10-30T11:08:47;2.15;;;1.30;;
47025;SDS011;32783;51.756;-2.556;2022-10-30T11:11:13;2.33;;;1.45;;
47025;SDS011;32783;51.756;-2.556;2022-10-30T11:13:39;3.13;;;1.65;;
47025;SDS011;32783;51.756;-2.556;2022-10-30T11:18:41;2.65;;;1.60;;
47025;SDS011;32783;51.756;-2.556;2022-10-30T11:21:08;2.47;;;1.35;;
47025;SDS011;32783;51.756;-2.556;2022-10-30T11:23:40;4.50;;;1.27;;
47025;SDS011;32783;51.756;-2.556;2022-10-30T11:28:44;2.90;;;1.20;;
47025;SDS011;32783;51.756;-2.556;2022-10-30T11:33:46;4.72;;;1.42;;
47025;SDS011;32783;51.756;-2.556;2022-10-30T11:36:16;4.05;;;1.20;;
47025;SDS011;32783;51.756;-2.556;2022-10-30T11:38:43;4.97;;;1.30;;
47025;SDS011;32783;51.756;-2.556;2022-10-30T11:41:09;4.20;;;1.27;;
47025;SDS011;32783;51.756;-2.556;2022-10-30T11:43:34;5.72;;;1.92;;
47025;SDS011;32783;51.756;-2.556;2022-10-30T11:46:01;3.13;;;1.33;;
47025;SDS011;32783;51.756;-2.556;2022-10-30T11:48:31;2.85;;;1.42;;
47025;SDS011;32783;51.756;-2.556;2022-10-30T11:50:58;2.90;;;1.00;;
47025;SDS011;32783;51.756;-2.556;2022-10-30T11:56:13;4.50;;;1.33;;
47025;SDS011;32783;51.756;-2.556;2022-10-30T11:58:50;2.47;;;0.97;;
47025;SDS011;32783;51.756;-2.556;2022-10-30T12:03:49;5.85;;;1.40;;
47025;SDS011;32783;51.756;-2.556;2022-10-30T12:06:18;5.53;;;1.35;;
47025;SDS011;32783;51.756;-2.556;2022-10-30T12:09:00;4.28;;;1.45;;
47025;SDS011;32783;51.756;-2.556;2022-10-30T12:11:31;2.30;;;1.05;;
47025;SDS011;32783;51.756;-2.556;2022-10-30T12:13:57;6.47;;;1.48;;
47025;SDS011;32783;51.756;-2.556;2022-10-30T12:16:23;3.50;;;1.05;;
47025;SDS011;32783;51.756;-2.556;2022-10-30T12:19:10;4.60;;;1.42;;
47025;SDS011;32783;51.756;-2.556;2022-10-30T12:21:40;4.57;;;1.33;;
47025;SDS011;32783;51.756;-2.556;2022-10-30T12:24:50;3.33;;;1.00;;
47025;SDS011;32783;51.756;-2.556;2022-10-30T12:27:01;4.38;;;1.20;;
47025;SDS011;32783;51.756;-2.556;2022-10-30T12:29:34;3.58;;;1.17;;
47025;SDS011;32783;51.756;-2.556;2022-10-30T12:32:08;3.72;;;0.90;;
47025;SDS011;32783;51.756;-2.556;2022-10-30T12:37:23;2.33;;;0.90;;
47025;SDS011;32783;51.756;-2.556;2022-10-30T12:39:53;2.85;;;1.48;;
47025;SDS011;32783;51.756;-2.556;2022-10-30T12:42:36;4.07;;;1.00;;
47025;SDS011;32783;51.756;-2.556;2022-10-30T12:45:11;3.40;;;1.05;;
47025;SDS011;32783;51.756;-2.556;2022-10-30T12:47:44;2.13;;;0.70;;
47025;SDS011;32783;51.756;-2.556;2022-10-30T12:53:14;3.45;;;1.02;;
47025;SDS011;32783;51.756;-2.556;2022-10-30T12:55:48;1.70;;;1.10;;
47025;SDS011;32783;51.756;-2.556;2022-10-30T12:58:27;4.28;;;1.17;;
47025;SDS011;32783;51.756;-2.556;2022-10-30T13:04:05;3.50;;;0.90;;
47025;SDS011;32783;51.756;-2.556;2022-10-30T13:06:33;3.40;;;1.10;;
47025;SDS011;32783;51.756;-2.556;2022-10-30T13:09:03;3.00;;;0.98;;
47025;SDS011;32783;51.756;-2.556;2022-10-30T13:14:02;3.13;;;1.20;;
47025;SDS011;32783;51.756;-2.556;2022-10-30T13:16:29;2.72;;;1.45;;
47025;SDS011;32783;51.756;-2.556;2022-10-30T13:18:56;2.05;;;0.80;;
47025;SDS011;32783;51.756;-2.556;2022-10-30T13:21:35;2.13;;;0.77;;
47025;SDS011;32783;51.756;-2.556;2022-10-30T13:24:10;1.65;;;0.60;;
47025;SDS011;32783;51.756;-2.556;2022-10-30T13:29:28;2.63;;;0.90;;
47025;SDS011;32783;51.756;-2.556;2022-10-30T13:34:51;1.33;;;0.70;;
47025;SDS011;32783;51.756;-2.556;2022-10-30T13:53:35;1.75;;;0.88;;
47025;SDS011;32783;51.756;-2.556;2022-10-30T13:56:03;1.77;;;0.95;;
47025;SDS011;32783;51.756;-2.556;2022-10-30T14:01:17;3.45;;;0.90;;
47025;SDS011;32783;51.756;-2.556;2022-10-30T14:09:11;1.70;;;0.75;;
47025;SDS011;32783;51.756;-2.556;2022-10-30T14:11:41;1.92;;;0.70;;
47025;SDS011;32783;51.756;-2.556;2022-10-30T14:16:48;3.40;;;0.57;;
47025;SDS011;32783;51.756;-2.556;2022-10-30T14:19:31;2.00;;;0.82;;
47025;SDS011;32783;51.756;-2.556;2022-10-30T14:21:57;1.20;;;0.70;;
47025;SDS011;32783;51.756;-2.556;2022-10-30T14:24:23;1.73;;;1.02;;
47025;SDS011;32783;51.756;-2.556;2022-10-30T14:27:07;2.28;;;0.70;;
47025;SDS011;32783;51.756;-2.556;2022-10-30T14:29:47;2.20;;;0.80;;
47025;SDS011;32783;51.756;-2.556;2022-10-30T14:39:52;2.83;;;0.65;;
47025;SDS011;32783;51.756;-2.556;2022-10-30T14:42:27;2.97;;;0.98;;
47025;SDS011;32783;51.756;-2.556;2022-10-30T14:47:32;3.27;;;1.00;;
47025;SDS011;32783;51.756;-2.556;2022-10-30T15:05:39;2.38;;;1.33;;
47025;SDS011;32783;51.756;-2.556;2022-10-30T15:13:51;3.08;;;0.77;;
47025;SDS011;32783;51.756;-2.556;2022-10-30T15:16:21;4.82;;;0.98;;
47025;SDS011;32783;51.756;-2.556;2022-10-30T15:18:48;1.95;;;0.73;;
47025;SDS011;32783;51.756;-2.556;2022-10-30T15:21:21;3.38;;;0.95;;
47025;SDS011;32783;51.756;-2.556;2022-10-30T15:23:49;11.13;;;1.98;;
47025;SDS011;32783;51.756;-2.556;2022-10-30T15:26:18;3.88;;;1.42;;
47025;SDS011;32783;51.756;-2.556;2022-10-30T15:31:24;4.00;;;1.70;;
47025;SDS011;32783;51.756;-2.556;2022-10-30T15:33:51;5.25;;;1.20;;
47025;SDS011;32783;51.756;-2.556;2022-10-30T15:41:37;11.23;;;1.77;;
47025;SDS011;32783;51.756;-2.556;2022-10-30T15:44:06;7.18;;;1.13;;
47025;SDS011;32783;51.756;-2.556;2022-10-30T15:46:32;17.10;;;2.58;;
47025;SDS011;32783;51.756;-2.556;2022-10-30T15:48:57;10.98;;;3.05;;
47025;SDS011;32783;51.756;-2.556;2022-10-30T15:51:23;14.07;;;2.70;;
47025;SDS011;32783;51.756;-2.556;2022-10-30T15:53:50;13.40;;;2.65;;
47025;SDS011;32783;51.756;-2.556;2022-10-30T15:58:53;3.55;;;1.20;;
47025;SDS011;32783;51.756;-2.556;2022-10-30T16:01:22;3.78;;;1.17;;
47025;SDS011;32783;51.756;-2.556;2022-10-30T16:03:50;4.53;;;1.73;;
47025;SDS011;32783;51.756;-2.556;2022-10-30T16:06:17;10.65;;;1.73;;
47025;SDS011;32783;51.756;-2.556;2022-10-30T16:08:43;5.35;;;1.38;;
47025;SDS011;32783;51.756;-2.556;2022-10-30T16:11:10;4.30;;;1.55;;
47025;SDS011;32783;51.756;-2.556;2022-10-30T16:13:36;7.20;;;1.30;;
47025;SDS011;32783;51.756;-2.556;2022-10-30T16:16:02;4.13;;;1.25;;
47025;SDS011;32783;51.756;-2.556;2022-10-30T16:18:32;2.90;;;1.27;;
47025;SDS011;32783;51.756;-2.556;2022-10-30T16:21:04;4.93;;;2.05;;
47025;SDS011;32783;51.756;-2.556;2022-10-30T16:23:37;4.55;;;1.33;;
47025;SDS011;32783;51.756;-2.556;2022-10-30T16:26:05;3.05;;;1.50;;
47025;SDS011;32783;51.756;-2.556;2022-10-30T16:31:00;3.45;;;1.38;;
47025;SDS011;32783;51.756;-2.556;2022-10-30T16:33:31;4.72;;;1.42;;
47025;SDS011;32783;51.756;-2.556;2022-10-30T16:35:58;3.33;;;1.17;;
47025;SDS011;32783;51.756;-2.556;2022-10-30T16:38:25;6.05;;;1.77;;
47025;SDS011;32783;51.756;-2.556;2022-10-30T16:40:52;4.57;;;1.17;;
47025;SDS011;32783;51.756;-2.556;2022-10-30T16:45:54;4.03;;;1.20;;
47025;SDS011;32783;51.756;-2.556;2022-10-30T16:48:22;3.20;;;1.20;;
47025;SDS011;32783;51.756;-2.556;2022-10-30T16:50:52;3.03;;;1.35;;
47025;SDS011;32783;51.756;-2.556;2022-10-30T16:53:22;2.70;;;1.17;;
47025;SDS011;32783;51.756;-2.556;2022-10-30T16:55:48;4.75;;;1.50;;
47025;SDS011;32783;51.756;-2.556;2022-10-30T16:58:14;4.90;;;1.42;;
47025;SDS011;32783;51.756;-2.556;2022-10-30T17:00:41;3.60;;;1.40;;
47025;SDS011;32783;51.756;-2.556;2022-10-30T17:03:12;5.38;;;1.60;;
47025;SDS011;32783;51.756;-2.556;2022-10-30T17:05:39;3.95;;;1.50;;
47025;SDS011;32783;51.756;-2.556;2022-10-30T17:11:04;4.85;;;1.10;;
47025;SDS011;32783;51.756;-2.556;2022-10-30T17:16:22;3.25;;;1.30;;
47025;SDS011;32783;51.756;-2.556;2022-10-30T17:18:50;3.40;;;1.20;;
47025;SDS011;32783;51.756;-2.556;2022-10-30T17:21:16;2.58;;;1.40;;
47025;SDS011;32783;51.756;-2.556;2022-10-30T17:23:44;1.35;;;1.00;;
47025;SDS011;32783;51.756;-2.556;2022-10-30T17:26:10;3.08;;;1.23;;
47025;SDS011;32783;51.756;-2.556;2022-10-30T17:28:37;3.17;;;1.05;;
47025;SDS011;32783;51.756;-2.556;2022-10-30T17:31:47;2.75;;;0.98;;